Time;durP1;ratioP1;P1;durP2;ratioP2;P2;SDS_P1;SDS_P2;PMS_P1;PMS_P2;Temp;Humidity;BMP_temperature;BMP_pressure;BME280_temperature;BME280_humidity;BME280_pressure;Samples;Min_cycle;Max_cycle;Signal;HPM_P1;HPM_P2
2021/10/11 00:00:01;;;;;;;64.03;33.93;;;;;;;;;;5073905;28;21178;-82
2021/10/11 00:02:28;;;;;;;58.80;33.90;;;;;;;;;;5079066;28;20466;-83
2021/10/11 00:04:55;;;;;;;59.33;32.77;;;;;;;;;;5077811;28;20448;-83
2021/10/11 00:07:22;;;;;;;63.60;35.07;;;;;;;;;;5077106;28;20455;-82
2021/10/11 00:09:49;;;;;;;62.90;33.80;;;;;;;;;;5077412;28;20521;-82
2021/10/11 00:12:19;;;;;;;56.60;31.47;;;;;;;;;;5078371;28;20561;-84
2021/10/11 00:14:47;;;;;;;66.53;34.13;;;;;;;;;;5077760;28;20453;-83
2021/10/11 00:17:14;;;;;;;61.13;35.57;;;;;;;;;;5065738;28;20534;-82
2021/10/11 00:19:43;;;;;;;59.80;36.17;;;;;;;;;;5077086;28;20836;-84
2021/10/11 00:22:10;;;;;;;61.73;34.27;;;;;;;;;;5079036;28;21035;-84
2021/10/11 00:24:37;;;;;;;60.50;35.30;;;;;;;;;;5061797;28;20455;-84
2021/10/11 00:27:05;;;;;;;66.33;37.10;;;;;;;;;;5077313;28;20459;-84
2021/10/11 00:29:32;;;;;;;65.70;36.57;;;;;;;;;;5078133;28;20493;-84
2021/10/11 00:32:03;;;;;;;61.40;36.53;;;;;;;;;;5077207;28;20953;-83
2021/10/11 00:34:30;;;;;;;68.33;38.50;;;;;;;;;;5076858;28;20455;-82
2021/10/11 00:36:57;;;;;;;66.40;38.53;;;;;;;;;;5076955;28;20447;-82
2021/10/11 00:39:24;;;;;;;66.60;37.23;;;;;;;;;;5076682;28;20544;-83
2021/10/11 00:41:51;;;;;;;67.50;37.43;;;;;;;;;;5075639;28;20465;-83
2021/10/11 00:44:18;;;;;;;66.70;37.30;;;;;;;;;;5073499;28;20450;-83
2021/10/11 00:46:45;;;;;;;67.50;37.90;;;;;;;;;;5071561;28;20948;-84
2021/10/11 00:49:14;;;;;;;69.40;40.97;;;;;;;;;;5076875;28;20494;-84
2021/10/11 00:51:41;;;;;;;67.87;38.60;;;;;;;;;;5077513;28;20468;-82
2021/10/11 00:54:09;;;;;;;74.60;38.30;;;;;;;;;;5080765;28;20454;-83
2021/10/11 00:56:36;;;;;;;61.83;38.30;;;;;;;;;;5081739;28;20874;-83
2021/10/11 00:59:03;;;;;;;64.00;38.63;;;;;;;;;;5077457;28;20447;-82
2021/10/11 01:01:30;;;;;;;66.50;37.13;;;;;;;;;;5078160;28;20478;-83
2021/10/11 01:04:04;;;;;;;70.63;40.20;;;;;;;;;;5079005;28;20451;-83
2021/10/11 01:06:34;;;;;;;70.10;40.20;;;;;;;;;;5077446;28;20473;-83
2021/10/11 01:09:03;;;;;;;68.73;36.57;;;;;;;;;;5078269;28;20989;-82
2021/10/11 01:11:30;;;;;;;68.30;39.60;;;;;;;;;;5078760;28;20608;-84
2021/10/11 01:13:57;;;;;;;68.23;39.27;;;;;;;;;;5077550;28;20427;-82
2021/10/11 01:16:25;;;;;;;74.97;40.97;;;;;;;;;;5075652;28;20442;-83
2021/10/11 01:18:52;;;;;;;69.50;39.77;;;;;;;;;;5076057;28;20450;-83
2021/10/11 01:21:20;;;;;;;72.90;40.40;;;;;;;;;;5075580;28;20466;-83
2021/10/11 01:23:47;;;;;;;75.47;40.90;;;;;;;;;;5075710;28;20898;-82
2021/10/11 01:26:15;;;;;;;73.67;42.10;;;;;;;;;;5073802;28;20453;-80
2021/10/11 01:28:42;;;;;;;71.67;39.90;;;;;;;;;;5076056;28;20455;-83
2021/10/11 01:31:09;;;;;;;79.83;43.20;;;;;;;;;;5074932;28;20476;-85
2021/10/11 01:33:36;;;;;;;74.07;40.43;;;;;;;;;;5074872;28;20457;-85
2021/10/11 01:36:04;;;;;;;72.80;40.70;;;;;;;;;;5078789;28;20495;-83
2021/10/11 01:38:32;;;;;;;70.30;43.17;;;;;;;;;;5082147;28;20451;-83
2021/10/11 01:40:59;;;;;;;74.50;41.80;;;;;;;;;;5071406;28;20554;-83
2021/10/11 01:43:27;;;;;;;70.77;41.83;;;;;;;;;;5088716;28;20452;-84
2021/10/11 01:45:54;;;;;;;69.40;40.97;;;;;;;;;;5085992;28;20479;-83
2021/10/11 01:48:21;;;;;;;78.33;45.73;;;;;;;;;;5086991;28;20457;-83
2021/10/11 01:50:48;;;;;;;77.37;46.50;;;;;;;;;;5085641;28;20489;-82
2021/10/11 01:53:15;;;;;;;76.60;46.03;;;;;;;;;;5083073;28;20449;-82
2021/10/11 01:55:44;;;;;;;82.67;45.13;;;;;;;;;;5091785;28;20447;-81
2021/10/11 01:58:11;;;;;;;78.60;46.77;;;;;;;;;;5094615;28;20457;-81
2021/10/11 02:00:38;;;;;;;79.40;44.00;;;;;;;;;;5095616;28;20497;-80
2021/10/11 02:03:07;;;;;;;75.70;45.20;;;;;;;;;;5095192;28;20894;-81
2021/10/11 02:05:34;;;;;;;80.27;46.47;;;;;;;;;;5085511;28;20453;-79
2021/10/11 02:08:02;;;;;;;91.87;52.47;;;;;;;;;;5094142;28;20539;-80
2021/10/11 02:10:29;;;;;;;81.37;45.70;;;;;;;;;;5084614;28;21165;-80
2021/10/11 02:12:57;;;;;;;80.33;47.23;;;;;;;;;;5073720;28;20448;-81
2021/10/11 02:15:25;;;;;;;78.27;45.70;;;;;;;;;;5074388;28;20465;-81
2021/10/11 02:17:52;;;;;;;84.30;46.90;;;;;;;;;;5073927;28;20446;-81
2021/10/11 02:20:20;;;;;;;81.87;48.37;;;;;;;;;;5073965;28;20470;-81
2021/10/11 02:22:47;;;;;;;87.83;46.73;;;;;;;;;;5073864;28;20444;-81
2021/10/11 02:25:14;;;;;;;80.07;49.40;;;;;;;;;;5073819;28;20448;-79
2021/10/11 02:27:41;;;;;;;75.83;45.93;;;;;;;;;;5073007;28;20463;-81
2021/10/11 02:30:11;;;;;;;91.30;50.90;;;;;;;;;;5073457;28;20480;-81
2021/10/11 02:32:39;;;;;;;81.17;46.23;;;;;;;;;;5073525;28;20445;-80
2021/10/11 02:35:07;;;;;;;84.53;51.07;;;;;;;;;;5073522;28;20449;-80
2021/10/11 02:37:34;;;;;;;84.77;48.87;;;;;;;;;;5073339;28;20444;-81
2021/10/11 02:40:01;;;;;;;82.70;47.00;;;;;;;;;;5074062;28;20443;-82
2021/10/11 02:42:28;;;;;;;85.37;49.40;;;;;;;;;;5074303;28;20470;-81
2021/10/11 02:44:55;;;;;;;87.83;50.47;;;;;;;;;;5073044;28;20838;-83
2021/10/11 02:47:24;;;;;;;79.47;46.90;;;;;;;;;;5072636;28;20916;-82
2021/10/11 02:49:51;;;;;;;82.83;47.57;;;;;;;;;;5072328;28;20496;-79
2021/10/11 02:52:18;;;;;;;83.50;50.77;;;;;;;;;;5071904;28;20476;-81
2021/10/11 02:54:45;;;;;;;85.33;50.17;;;;;;;;;;5072753;28;20906;-80
2021/10/11 02:57:13;;;;;;;84.80;49.00;;;;;;;;;;5072258;28;20455;-80
2021/10/11 02:59:40;;;;;;;80.17;48.00;;;;;;;;;;5072396;28;20453;-82
2021/10/11 03:02:07;;;;;;;88.23;50.27;;;;;;;;;;5072862;28;20475;-80
2021/10/11 03:04:35;;;;;;;79.97;47.67;;;;;;;;;;5075958;28;20450;-83
2021/10/11 03:07:03;;;;;;;92.37;52.30;;;;;;;;;;5073954;28;20455;-82
2021/10/11 03:09:30;;;;;;;88.77;51.37;;;;;;;;;;5075765;28;20561;-83
2021/10/11 03:11:57;;;;;;;82.53;47.90;;;;;;;;;;5077295;28;20477;-85
2021/10/11 03:14:24;;;;;;;97.70;53.10;;;;;;;;;;5090213;28;20515;-81
2021/10/11 03:16:51;;;;;;;87.00;49.33;;;;;;;;;;5090167;28;20468;-82
2021/10/11 03:19:18;;;;;;;94.23;50.43;;;;;;;;;;5089210;28;20453;-83
2021/10/11 03:21:46;;;;;;;88.10;51.03;;;;;;;;;;5088597;28;20984;-83
2021/10/11 03:24:14;;;;;;;81.83;49.10;;;;;;;;;;5089667;28;20454;-81
2021/10/11 03:26:43;;;;;;;80.23;48.10;;;;;;;;;;5087467;28;20497;-82
2021/10/11 03:29:10;;;;;;;75.23;47.23;;;;;;;;;;5081555;28;20459;-83
2021/10/11 03:31:37;;;;;;;77.53;47.17;;;;;;;;;;5081765;28;20505;-82
2021/10/11 03:34:06;;;;;;;70.17;44.03;;;;;;;;;;5081907;28;20476;-82
2021/10/11 03:36:33;;;;;;;76.13;46.33;;;;;;;;;;5081198;28;20474;-84
2021/10/11 03:39:02;;;;;;;72.13;44.20;;;;;;;;;;5080314;28;20456;-82
2021/10/11 03:41:29;;;;;;;72.93;43.53;;;;;;;;;;5073857;28;20481;-81
2021/10/11 03:43:56;;;;;;;74.50;43.17;;;;;;;;;;5080189;28;20935;-81
2021/10/11 03:46:23;;;;;;;71.10;44.30;;;;;;;;;;5085128;28;20451;-82
2021/10/11 03:48:50;;;;;;;70.17;44.23;;;;;;;;;;5073507;28;20453;-80
2021/10/11 03:51:21;;;;;;;72.93;42.20;;;;;;;;;;5075702;28;20834;-81
2021/10/11 03:53:48;;;;;;;71.00;43.20;;;;;;;;;;5076546;28;20516;-82
2021/10/11 03:56:17;;;;;;;73.87;42.83;;;;;;;;;;5076842;28;20454;-81
2021/10/11 03:58:44;;;;;;;68.63;40.73;;;;;;;;;;5077211;28;20543;-81
2021/10/11 04:01:11;;;;;;;71.17;42.53;;;;;;;;;;5076707;28;20466;-82
2021/10/11 04:03:39;;;;;;;62.80;37.50;;;;;;;;;;5077090;28;20463;-81
2021/10/11 04:06:07;;;;;;;61.20;35.77;;;;;;;;;;5076431;28;20460;-82
2021/10/11 04:08:36;;;;;;;56.67;34.93;;;;;;;;;;5077326;28;20447;-82
2021/10/11 04:11:08;;;;;;;56.03;34.30;;;;;;;;;;5077354;28;20923;-82
2021/10/11 04:13:36;;;;;;;55.53;32.97;;;;;;;;;;5077438;28;20454;-82
2021/10/11 04:16:03;;;;;;;58.50;32.13;;;;;;;;;;5078120;28;20895;-82
2021/10/11 04:18:31;;;;;;;56.40;31.93;;;;;;;;;;5077420;28;20445;-82
2021/10/11 04:20:58;;;;;;;57.30;32.73;;;;;;;;;;5076675;28;20469;-81
2021/10/11 04:23:25;;;;;;;54.10;31.60;;;;;;;;;;5074036;28;20453;-82
2021/10/11 04:25:52;;;;;;;57.60;31.93;;;;;;;;;;5089509;28;20454;-82
2021/10/11 04:28:20;;;;;;;54.80;31.40;;;;;;;;;;5087869;28;20460;-82
2021/10/11 04:30:48;;;;;;;54.50;32.40;;;;;;;;;;5078107;28;20553;-82
2021/10/11 04:33:15;;;;;;;51.50;30.43;;;;;;;;;;5113640;22;20530;-85
2021/10/11 04:35:43;;;;;;;53.23;31.80;;;;;;;;;;5091065;28;20456;-85
2021/10/11 04:38:11;;;;;;;53.37;31.43;;;;;;;;;;5102176;28;20461;-85
2021/10/11 04:40:38;;;;;;;55.10;31.83;;;;;;;;;;5106284;28;20455;-85
2021/10/11 04:43:05;;;;;;;53.27;31.30;;;;;;;;;;5090814;28;20575;-85
2021/10/11 04:45:33;;;;;;;61.70;35.03;;;;;;;;;;5080608;28;20464;-85
2021/10/11 04:48:03;;;;;;;54.47;34.60;;;;;;;;;;5075887;28;20452;-85
2021/10/11 04:50:32;;;;;;;54.30;32.57;;;;;;;;;;5084684;28;20487;-85
2021/10/11 04:53:00;;;;;;;52.33;30.33;;;;;;;;;;5094095;28;20504;-86
2021/10/11 04:55:27;;;;;;;59.60;31.27;;;;;;;;;;5085791;28;20458;-85
2021/10/11 04:57:55;;;;;;;56.83;33.60;;;;;;;;;;5081030;28;20455;-86
2021/10/11 05:00:23;;;;;;;59.30;34.87;;;;;;;;;;5083315;28;20531;-87
2021/10/11 05:02:50;;;;;;;51.10;29.07;;;;;;;;;;5083790;28;20473;-85
2021/10/11 05:05:18;;;;;;;52.87;30.40;;;;;;;;;;5082432;28;20474;-85
2021/10/11 05:07:45;;;;;;;52.90;32.60;;;;;;;;;;5089201;28;20462;-86
2021/10/11 05:10:12;;;;;;;51.73;28.93;;;;;;;;;;5084906;28;20482;-85
2021/10/11 05:12:39;;;;;;;49.77;28.90;;;;;;;;;;5089606;28;20477;-85
2021/10/11 05:15:07;;;;;;;47.20;27.23;;;;;;;;;;5083073;28;20450;-86
2021/10/11 05:17:34;;;;;;;50.17;27.67;;;;;;;;;;5085880;28;20466;-85
2021/10/11 05:20:02;;;;;;;39.47;22.93;;;;;;;;;;5087798;28;20452;-85
2021/10/11 05:22:30;;;;;;;38.47;20.40;;;;;;;;;;5092501;28;20478;-83
2021/10/11 05:24:58;;;;;;;42.13;20.00;;;;;;;;;;5091594;28;20623;-84
2021/10/11 05:27:25;;;;;;;42.80;22.53;;;;;;;;;;5088421;28;20435;-84
2021/10/11 05:29:52;;;;;;;43.23;22.00;;;;;;;;;;5085201;28;20535;-83
2021/10/11 05:32:19;;;;;;;42.60;20.43;;;;;;;;;;5065381;28;20482;-83
2021/10/11 05:34:47;;;;;;;39.97;19.07;;;;;;;;;;5087156;28;20452;-84
2021/10/11 05:37:16;;;;;;;38.30;17.87;;;;;;;;;;5082187;28;20440;-83
2021/10/11 05:39:45;;;;;;;35.30;16.13;;;;;;;;;;5085781;28;20445;-84
2021/10/11 05:42:12;;;;;;;38.03;19.07;;;;;;;;;;5084024;28;20555;-85
2021/10/11 05:44:39;;;;;;;35.10;17.17;;;;;;;;;;5082167;28;20456;-84
2021/10/11 05:47:06;;;;;;;33.47;17.10;;;;;;;;;;5075508;28;20451;-84
2021/10/11 05:49:33;;;;;;;33.60;16.20;;;;;;;;;;5081777;28;20439;-86
2021/10/11 05:52:01;;;;;;;31.00;15.17;;;;;;;;;;5078194;28;20496;-83
2021/10/11 05:54:28;;;;;;;31.07;14.80;;;;;;;;;;5074421;28;20546;-85
2021/10/11 05:56:57;;;;;;;32.30;14.63;;;;;;;;;;5079454;28;20515;-84
2021/10/11 05:59:25;;;;;;;32.63;14.70;;;;;;;;;;5080666;28;20508;-86
2021/10/11 06:01:52;;;;;;;35.00;15.07;;;;;;;;;;5080914;28;20447;-84
2021/10/11 06:04:19;;;;;;;31.13;15.13;;;;;;;;;;5081690;28;20452;-85
2021/10/11 06:06:46;;;;;;;30.53;15.77;;;;;;;;;;5079908;28;20447;-84
2021/10/11 06:09:15;;;;;;;33.50;14.87;;;;;;;;;;5080475;28;20444;-83
2021/10/11 06:11:42;;;;;;;30.10;13.43;;;;;;;;;;5072172;28;20526;-85
2021/10/11 06:14:11;;;;;;;34.87;14.20;;;;;;;;;;5072589;28;20452;-84
2021/10/11 06:16:38;;;;;;;30.30;13.87;;;;;;;;;;5077023;28;20538;-84
2021/10/11 06:19:05;;;;;;;30.13;12.60;;;;;;;;;;5081541;28;20444;-85
2021/10/11 06:21:35;;;;;;;28.57;11.73;;;;;;;;;;5074722;28;20444;-85
2021/10/11 06:24:02;;;;;;;29.70;11.60;;;;;;;;;;5071255;28;20478;-85
2021/10/11 06:26:29;;;;;;;29.37;12.57;;;;;;;;;;5075036;28;20474;-85
2021/10/11 06:28:56;;;;;;;25.80;11.77;;;;;;;;;;5079482;28;20455;-84
2021/10/11 06:31:25;;;;;;;25.20;10.70;;;;;;;;;;5070818;28;20491;-85
2021/10/11 06:33:52;;;;;;;26.73;11.80;;;;;;;;;;5070122;28;20486;-83
2021/10/11 06:36:19;;;;;;;28.07;11.33;;;;;;;;;;5065429;28;20534;-84
2021/10/11 06:38:46;;;;;;;26.40;11.50;;;;;;;;;;5084007;28;20533;-82
2021/10/11 06:41:13;;;;;;;27.80;10.87;;;;;;;;;;5069140;28;20490;-84
2021/10/11 06:43:41;;;;;;;27.50;12.07;;;;;;;;;;5065467;28;20482;-84
2021/10/11 06:46:08;;;;;;;25.40;10.60;;;;;;;;;;5070415;28;20519;-82
2021/10/11 06:48:36;;;;;;;28.00;11.83;;;;;;;;;;5070193;28;20601;-83
2021/10/11 06:51:04;;;;;;;26.60;10.87;;;;;;;;;;5079388;28;20487;-84
2021/10/11 06:53:31;;;;;;;26.13;10.90;;;;;;;;;;5078380;28;20513;-80
2021/10/11 06:55:58;;;;;;;26.73;11.20;;;;;;;;;;5064138;28;20455;-82
2021/10/11 06:58:28;;;;;;;27.07;10.87;;;;;;;;;;5077923;28;20547;-83
2021/10/11 07:00:55;;;;;;;25.10;9.90;;;;;;;;;;5073596;28;20522;-82
2021/10/11 07:03:25;;;;;;;26.10;10.37;;;;;;;;;;5074805;28;20548;-82
2021/10/11 07:05:56;;;;;;;26.13;9.60;;;;;;;;;;5069282;28;20473;-82
2021/10/11 07:08:24;;;;;;;23.23;8.43;;;;;;;;;;5080390;28;20491;-81
2021/10/11 07:10:53;;;;;;;24.30;9.17;;;;;;;;;;5080098;28;20556;-82
2021/10/11 07:13:20;;;;;;;25.10;8.50;;;;;;;;;;5073906;28;20470;-81
2021/10/11 07:15:47;;;;;;;24.80;8.10;;;;;;;;;;5080558;28;20467;-82
2021/10/11 07:18:14;;;;;;;22.67;7.90;;;;;;;;;;5081377;28;20450;-81
2021/10/11 07:20:43;;;;;;;25.00;7.07;;;;;;;;;;5080224;28;20920;-81
2021/10/11 07:23:11;;;;;;;23.77;7.83;;;;;;;;;;5070559;28;20497;-80
2021/10/11 07:25:39;;;;;;;23.20;7.40;;;;;;;;;;5080502;28;20456;-81
2021/10/11 07:28:06;;;;;;;22.43;6.37;;;;;;;;;;5072433;28;20970;-80
2021/10/11 07:30:33;;;;;;;20.90;7.60;;;;;;;;;;5081885;28;20451;-81
2021/10/11 07:33:02;;;;;;;24.13;6.50;;;;;;;;;;5069565;28;20495;-81
2021/10/11 07:35:30;;;;;;;24.83;6.40;;;;;;;;;;5065877;28;20458;-82
2021/10/11 07:37:57;;;;;;;20.57;5.70;;;;;;;;;;5074401;28;20451;-82
2021/10/11 07:40:25;;;;;;;20.13;4.77;;;;;;;;;;5074418;28;20455;-82
2021/10/11 07:42:52;;;;;;;20.60;4.60;;;;;;;;;;5080268;28;20470;-81
2021/10/11 07:45:19;;;;;;;20.40;5.13;;;;;;;;;;5082640;28;20956;-85
2021/10/11 07:47:48;;;;;;;20.33;4.10;;;;;;;;;;5084678;28;20543;-85
2021/10/11 07:50:15;;;;;;;20.57;5.03;;;;;;;;;;5084828;28;20529;-84
2021/10/11 07:52:43;;;;;;;21.20;4.10;;;;;;;;;;5084632;28;20580;-84
2021/10/11 07:55:10;;;;;;;24.10;5.47;;;;;;;;;;5086929;28;20538;-84
2021/10/11 07:57:38;;;;;;;19.50;4.50;;;;;;;;;;5089058;28;20565;-85
2021/10/11 08:00:07;;;;;;;20.53;4.47;;;;;;;;;;5087820;28;20465;-84
2021/10/11 08:02:34;;;;;;;20.67;4.80;;;;;;;;;;5088089;28;20459;-85
2021/10/11 08:05:01;;;;;;;20.20;4.60;;;;;;;;;;5088398;28;20541;-84
2021/10/11 08:07:28;;;;;;;23.63;5.17;;;;;;;;;;5088988;28;20834;-84
2021/10/11 08:09:56;;;;;;;20.80;5.30;;;;;;;;;;5086706;28;20549;-83
2021/10/11 08:12:23;;;;;;;19.33;4.57;;;;;;;;;;5085748;28;20496;-83
2021/10/11 08:14:51;;;;;;;22.00;5.20;;;;;;;;;;5083414;28;20585;-81
2021/10/11 08:17:19;;;;;;;20.53;4.37;;;;;;;;;;5086132;28;20457;-82
2021/10/11 08:19:46;;;;;;;23.10;4.90;;;;;;;;;;5087078;28;20444;-83
2021/10/11 08:22:13;;;;;;;20.27;4.33;;;;;;;;;;5083808;28;20470;-82
2021/10/11 08:24:40;;;;;;;19.60;4.57;;;;;;;;;;5081843;28;20452;-83
2021/10/11 08:27:07;;;;;;;18.30;5.07;;;;;;;;;;5088109;28;20516;-83
2021/10/11 08:29:34;;;;;;;20.63;4.90;;;;;;;;;;5094055;28;20470;-84
2021/10/11 08:32:03;;;;;;;19.37;4.27;;;;;;;;;;5084401;28;20521;-84
2021/10/11 08:34:30;;;;;;;20.00;4.20;;;;;;;;;;5085771;28;20450;-84
2021/10/11 08:36:57;;;;;;;18.30;5.17;;;;;;;;;;5081484;28;20443;-85
2021/10/11 08:39:24;;;;;;;15.33;4.10;;;;;;;;;;5085598;28;20455;-87
2021/10/11 08:41:52;;;;;;;22.67;4.63;;;;;;;;;;5084180;28;20518;-85
2021/10/11 08:44:19;;;;;;;19.13;4.33;;;;;;;;;;5080870;28;20454;-85
2021/10/11 08:46:46;;;;;;;17.00;4.40;;;;;;;;;;5067865;28;20459;-86
2021/10/11 08:49:15;;;;;;;21.70;5.67;;;;;;;;;;5081683;28;20454;-86
2021/10/11 08:51:42;;;;;;;21.20;5.20;;;;;;;;;;5085268;28;20483;-85
2021/10/11 08:54:09;;;;;;;20.47;4.70;;;;;;;;;;5077302;28;20460;-85
2021/10/11 08:56:37;;;;;;;23.77;4.40;;;;;;;;;;5065926;28;20847;-84
2021/10/11 08:59:04;;;;;;;20.80;5.03;;;;;;;;;;5068332;28;20483;-84
2021/10/11 09:01:32;;;;;;;17.87;3.97;;;;;;;;;;5069983;28;20926;-82
2021/10/11 09:04:03;;;;;;;22.57;4.57;;;;;;;;;;5078595;28;20513;-83
2021/10/11 09:06:31;;;;;;;22.63;4.63;;;;;;;;;;5071233;28;20792;-84
2021/10/11 09:09:10;;;;;;;20.43;3.80;;;;;;;;;;5072529;28;20969;-84
2021/10/11 09:11:37;;;;;;;19.40;3.40;;;;;;;;;;5074549;28;20483;-84
2021/10/11 09:14:05;;;;;;;18.00;3.90;;;;;;;;;;5070571;28;20899;-84
2021/10/11 09:16:34;;;;;;;19.63;4.10;;;;;;;;;;5079469;28;20455;-84
2021/10/11 09:19:11;;;;;;;19.67;3.97;;;;;;;;;;5066811;28;20947;-84
2021/10/11 09:21:40;;;;;;;19.90;4.23;;;;;;;;;;5076513;28;20494;-84
2021/10/11 09:24:11;;;;;;;19.37;4.50;;;;;;;;;;5065312;28;20464;-82
2021/10/11 09:26:45;;;;;;;17.30;2.83;;;;;;;;;;5067610;28;20526;-83
2021/10/11 09:29:12;;;;;;;19.80;4.17;;;;;;;;;;5063807;28;20967;-83
2021/10/11 09:31:41;;;;;;;19.93;4.43;;;;;;;;;;5077625;28;20491;-84
2021/10/11 09:34:08;;;;;;;21.23;3.83;;;;;;;;;;5079615;28;20884;-83
2021/10/11 09:36:37;;;;;;;19.53;3.50;;;;;;;;;;5078415;28;20451;-82
2021/10/11 09:39:06;;;;;;;18.17;3.60;;;;;;;;;;5078054;28;20451;-83
2021/10/11 09:41:33;;;;;;;17.90;3.30;;;;;;;;;;5078034;28;20820;-83
2021/10/11 09:44:00;;;;;;;19.37;3.23;;;;;;;;;;5079044;28;20480;-85
2021/10/11 09:46:29;;;;;;;15.40;2.73;;;;;;;;;;5077094;28;20457;-82
2021/10/11 09:48:59;;;;;;;22.63;3.33;;;;;;;;;;5077690;28;20481;-83
2021/10/11 09:51:26;;;;;;;16.37;2.87;;;;;;;;;;5069355;28;20543;-83
2021/10/11 09:53:56;;;;;;;19.27;3.90;;;;;;;;;;5077948;28;20473;-83
2021/10/11 09:56:26;;;;;;;21.00;2.93;;;;;;;;;;5077388;28;20491;-83
2021/10/11 09:58:54;;;;;;;19.90;3.57;;;;;;;;;;5077415;28;20443;-83
2021/10/11 10:01:22;;;;;;;17.87;2.27;;;;;;;;;;5077460;28;20481;-83
2021/10/11 10:03:49;;;;;;;18.33;2.93;;;;;;;;;;5076863;28;20475;-83
2021/10/11 10:06:16;;;;;;;22.03;4.17;;;;;;;;;;5077510;28;20479;-83
2021/10/11 10:08:44;;;;;;;19.53;3.17;;;;;;;;;;5078475;28;20815;-84
2021/10/11 10:11:12;;;;;;;17.80;3.27;;;;;;;;;;5073229;28;20512;-83
2021/10/11 10:13:47;;;;;;;23.90;3.97;;;;;;;;;;5057561;28;20536;-83
2021/10/11 10:16:15;;;;;;;20.50;3.30;;;;;;;;;;5070735;28;20457;-82
2021/10/11 10:18:43;;;;;;;19.50;2.70;;;;;;;;;;5077096;28;20455;-83
2021/10/11 10:21:11;;;;;;;25.13;4.03;;;;;;;;;;5077557;28;20460;-83
2021/10/11 10:23:39;;;;;;;18.17;3.03;;;;;;;;;;5073837;28;20470;-83
2021/10/11 10:26:14;;;;;;;25.30;3.73;;;;;;;;;;5078302;28;20454;-83
2021/10/11 10:28:42;;;;;;;20.00;3.30;;;;;;;;;;5092009;28;20519;-82
2021/10/11 10:31:11;;;;;;;21.87;2.67;;;;;;;;;;5077756;28;21007;-83
2021/10/11 10:33:38;;;;;;;16.30;2.10;;;;;;;;;;5077680;28;20502;-82
2021/10/11 10:36:06;;;;;;;18.00;2.20;;;;;;;;;;5076092;28;20462;-83
2021/10/11 10:38:33;;;;;;;19.17;2.10;;;;;;;;;;5076315;28;20532;-82
2021/10/11 10:41:01;;;;;;;19.90;3.40;;;;;;;;;;5076618;28;20448;-82
2021/10/11 10:43:38;;;;;;;20.10;1.90;;;19.00;99.90;;;;;;5071564;28;20470;-83
2021/10/11 10:46:10;;;;;;;21.17;2.53;;;19.30;99.90;;;;;;5077465;28;20436;-83
2021/10/11 10:48:49;;;;;;;18.43;2.20;;;19.80;99.90;;;;;;5077718;28;20461;-82
2021/10/11 10:51:16;;;;;;;17.00;1.83;;;20.50;99.90;;;;;;5077634;28;20689;-82
2021/10/11 10:53:51;;;;;;;17.63;2.17;;;21.10;99.90;;;;;;5077665;28;20490;-83
2021/10/11 10:56:18;;;;;;;17.50;2.10;;;21.30;99.90;;;;;;5076948;28;20896;-83
2021/10/11 10:58:46;;;;;;;17.97;2.20;;;21.80;99.90;;;;;;5077934;28;20449;-83
2021/10/11 11:01:14;;;;;;;19.03;3.00;;;22.30;99.90;;;;;;5073103;28;20478;-82
2021/10/11 11:03:41;;;;;;;17.77;2.17;;;22.60;99.90;;;;;;5057922;28;20468;-83
2021/10/11 11:06:09;;;;;;;18.30;3.10;;;22.80;99.90;;;;;;5057313;28;20467;-82
2021/10/11 11:08:35;;;;;;;14.17;2.97;;;22.80;99.90;;;;;;5065534;28;20814;-82
2021/10/11 11:11:04;;;;;;;17.07;3.07;;;23.60;99.90;;;;;;5077217;28;20448;-82
2021/10/11 11:13:30;;;;;;;16.33;3.80;;;24.00;99.90;;;;;;5076802;28;21053;-83
2021/10/11 11:15:57;;;;;;;12.93;2.37;;;23.50;99.90;;;;;;5058301;28;20842;-82
2021/10/11 11:18:27;;;;;;;15.40;2.73;;;22.90;99.90;;;;;;5057033;28;20830;-82
2021/10/11 11:20:56;;;;;;;18.73;3.73;;;22.60;99.90;;;;;;5065133;28;20586;-83
2021/10/11 11:23:24;;;;;;;13.77;2.80;;;21.50;99.90;;;;;;5076618;28;20483;-82
2021/10/11 11:25:56;;;;;;;15.23;2.27;;;21.00;99.90;;;;;;5076636;28;20449;-82
2021/10/11 11:28:28;;;;;;;13.30;2.30;;;20.30;99.90;;;;;;5075367;28;20960;-82
2021/10/11 11:31:02;;;;;;;15.77;3.13;;;19.40;99.90;;;;;;5079116;28;20454;-82
2021/10/11 11:33:31;;;;;;;15.40;3.60;;;18.80;99.90;;;;;;5071298;28;20480;-82
2021/10/11 11:36:02;;;;;;;17.00;2.43;;;18.50;99.90;;;;;;5075073;28;20500;-82
2021/10/11 11:38:30;;;;;;;16.10;2.67;;;19.20;99.90;;;;;;5080064;28;20829;-82
2021/10/11 11:40:59;;;;;;;15.90;2.57;;;19.40;99.90;;;;;;5075299;28;20461;-82
2021/10/11 11:43:28;;;;;;;22.70;3.27;;;20.90;99.90;;;;;;5080078;28;20918;-82
2021/10/11 11:45:56;;;;;;;17.00;2.57;;;22.20;99.90;;;;;;5080061;28;20451;-82
2021/10/11 11:48:26;;;;;;;14.13;2.33;;;23.20;99.90;;;;;;5079253;28;20450;-82
2021/10/11 11:50:56;;;;;;;12.83;2.00;;;23.90;99.90;;;;;;5081343;28;20443;-82
2021/10/11 11:53:25;;;;;;;16.57;3.93;;;24.40;99.90;;;;;;5081062;28;20546;-82
2021/10/11 11:55:53;;;;;;;16.13;2.90;;;25.10;99.90;;;;;;5080610;28;20453;-82
2021/10/11 11:58:24;;;;;;;14.40;2.60;;;25.60;99.90;;;;;;5080608;28;20455;-82
2021/10/11 12:00:54;;;;;;;12.40;2.13;;;25.80;99.90;;;;;;5079908;28;20999;-82
2021/10/11 12:03:23;;;;;;;14.30;3.20;;;25.40;99.90;;;;;;5080071;28;20493;-82
2021/10/11 12:05:52;;;;;;;10.33;2.10;;;25.30;99.90;;;;;;5083427;28;20538;-82
2021/10/11 12:08:22;;;;;;;11.10;2.03;;;24.70;99.90;;;;;;5081503;28;20452;-81
2021/10/11 12:10:57;;;;;;;11.00;1.73;;;23.60;99.90;;;;;;5077118;28;20443;-81
2021/10/11 12:13:28;;;;;;;14.20;2.60;;;22.00;99.90;;;;;;5078442;28;20480;-82
2021/10/11 12:15:59;;;;;;;12.40;2.40;;;20.60;99.90;;;;;;5077500;28;20443;-81
2021/10/11 12:18:36;;;;;;;10.63;2.10;;;19.70;99.90;;;;;;5060013;28;20497;-81
2021/10/11 12:21:03;;;;;;;13.17;2.03;;;19.20;99.90;;;;;;5059518;28;20446;-81
2021/10/11 12:23:39;;;;;;;13.93;2.27;;;19.10;99.90;;;;;;5059283;28;20493;-81
2021/10/11 12:26:07;;;;;;;13.50;2.07;;;18.80;99.90;;;;;;5071051;28;20450;-80
2021/10/11 12:28:34;;;;;;;11.50;1.93;;;18.80;99.90;;;;;;5087394;28;20825;-81
2021/10/11 12:31:03;;;;;;;13.97;1.80;;;18.70;99.90;;;;;;5078584;28;20446;-81
2021/10/11 12:33:37;;;;;;;11.47;2.77;;;18.40;99.90;;;;;;5078173;28;20584;-80
2021/10/11 12:36:05;;;;;;;13.27;2.00;;;18.20;99.90;;;;;;5078492;28;20825;-79
2021/10/11 12:38:38;;;;;;;12.00;2.07;;;18.40;99.90;;;;;;5077817;28;20458;-80
2021/10/11 12:41:10;;;;;;;15.23;2.27;;;19.00;99.90;;;;;;5078379;28;20450;-80
2021/10/11 12:43:37;;;;;;;18.40;2.10;;;19.30;99.90;;;;;;5078410;28;20497;-80
2021/10/11 12:46:07;;;;;;;11.57;1.70;;;19.50;99.90;;;;;;5078260;28;20454;-79
2021/10/11 12:48:34;;;;;;;14.77;2.33;;;19.70;99.90;;;;;;5078547;28;20458;-81
2021/10/11 12:51:01;;;;;;;13.47;2.37;;;20.10;99.90;;;;;;5078889;28;20473;-81
2021/10/11 12:53:29;;;;;;;14.77;2.70;;;20.30;99.90;;;;;;5079510;28;20462;-80
2021/10/11 12:55:58;;;;;;;14.73;2.40;;;20.80;99.90;;;;;;5078647;28;20478;-80
2021/10/11 12:58:26;;;;;;;10.10;1.63;;;21.30;99.90;;;;;;5079123;28;20461;-81
2021/10/11 13:00:53;;;;;;;11.70;1.43;;;21.10;99.90;;;;;;5077390;28;20576;-79
2021/10/11 13:03:20;;;;;;;11.93;1.80;;;20.50;99.90;;;;;;5076842;28;20487;-80
2021/10/11 13:05:47;;;;;;;13.10;1.40;;;20.30;99.90;;;;;;5077431;28;20443;-80
2021/10/11 13:08:14;;;;;;;12.93;1.77;;;20.00;99.90;;;;;;5077213;28;20447;-80
2021/10/11 13:10:41;;;;;;;10.80;1.30;;;19.50;99.90;;;;;;5078588;28;20462;-82
2021/10/11 13:13:09;;;;;;;12.33;1.57;;;19.40;99.90;;;;;;5078683;28;20475;-82
2021/10/11 13:15:36;;;;;;;12.57;2.33;;;19.20;99.90;;;;;;5079166;28;20443;-82
2021/10/11 13:18:05;;;;;;;12.67;2.33;;;18.90;99.90;;;;;;5077619;28;20443;-83
2021/10/11 13:20:31;;;;;;;12.43;1.53;;;18.50;99.90;;;;;;5077920;28;20457;-80
2021/10/11 13:22:58;;;;;;;12.43;1.80;;;18.10;99.90;;;;;;5077788;28;20498;-79
2021/10/11 13:25:25;;;;;;;10.53;1.50;;;18.00;99.90;;;;;;5077733;28;20445;-80
2021/10/11 13:27:52;;;;;;;9.97;1.50;;;17.80;99.90;;;;;;5076799;28;20518;-79
2021/10/11 14:28:09;;;;;;;12.20;1.40;;;15.40;99.90;;;;;;5078062;28;20450;-82
2021/10/11 14:30:45;;;;;;;14.23;1.33;;;15.40;99.90;;;;;;5075938;28;20466;-82
2021/10/11 15:58:34;;;;;;;19.53;2.27;;;15.10;99.90;;;;;;5068779;28;20482;-82
2021/10/11 16:01:03;;;;;;;16.53;2.40;;;15.00;99.90;;;;;;5064742;28;20466;-83
2021/10/11 16:03:50;;;;;;;20.07;2.47;;;15.00;99.90;;;;;;5059805;28;20496;-82
2021/10/11 16:06:18;;;;;;;16.23;2.77;;;15.00;99.90;;;;;;5063278;28;20445;-82
2021/10/11 16:08:45;;;;;;;15.83;2.50;;;15.00;99.90;;;;;;5061254;28;20474;-82
2021/10/11 16:11:12;;;;;;;17.17;2.20;;;14.80;99.90;;;;;;5064995;28;20535;-82
2021/10/11 16:13:41;;;;;;;12.00;1.97;;;14.70;99.90;;;;;;5062380;28;20558;-82
2021/10/11 16:16:11;;;;;;;16.17;2.20;;;14.70;99.90;;;;;;5054823;28;20450;-82
2021/10/11 16:18:39;;;;;;;14.63;1.90;;;14.70;99.90;;;;;;5069141;28;20878;-82
2021/10/11 16:21:08;;;;;;;14.40;2.10;;;14.60;99.90;;;;;;5069477;28;20539;-82